Observation data for Gail on 07/05/2020      Previous  Date       Current Mesonet Observations  Soil Data  Daily Summary Page  Observations in Plain Language
KGGS 050500Z 08005KT 29/12 A2992 RMK A01 T02850117  RH  037%=      5-min Rain = 0
KGGS 050505Z 07005KT 28/12 A2992 RMK A01 T02800121  RH  039%=      5-min Rain = 0
KGGS 050510Z 07005KT 28/12 A2992 RMK A01 T02780121  RH  039%=      5-min Rain = 0
KGGS 050515Z 09006G11KT 28/12 A2993 RMK A01 T02800119  RH  038%=      5-min Rain = 0
KGGS 050520Z 11008KT 29/11 A2992 RMK A01 T02920106  RH  033%=      5-min Rain = 0
KGGS 050525Z 12006KT 31/10 A2993 RMK A01 T03050101  RH  029%=      5-min Rain = 0
KGGS 050530Z 11006KT 30/10 A2993 RMK A01 T02980103  RH  031%=      5-min Rain = 0
KGGS 050535Z 07005KT 29/11 A2993 RMK A01 T02910109  RH  034%=      5-min Rain = 0
KGGS 050540Z 05005KT 28/12 A2993 RMK A01 T02810118  RH  038%=      5-min Rain = 0
KGGS 050545Z 05004KT 27/13 A2993 RMK A01 T02740126  RH  042%=      5-min Rain = 0
KGGS 050550Z 06003KT 27/13 A2992 RMK A01 T02700132  RH  044%=      5-min Rain = 0
KGGS 050555Z 04003KT 27/13 A2993 RMK A01 T02650134  RH  046%=      5-min Rain = 0
KGGS 050600Z 02002KT 26/13 A2993 RMK A01 T02570133  RH  048%=      5-min Rain = 0
KGGS 050605Z 01003KT 25/13 A2993 RMK A01 T02510134  RH  050%=      5-min Rain = 0
KGGS 050610Z 00003KT 25/14 A2993 RMK A01 T02490138  RH  052%=      5-min Rain = 0
KGGS 050615Z 36003KT 25/14 A2993 RMK A01 T02520141  RH  052%=      5-min Rain = 0
KGGS 050620Z 35003KT 25/14 A2993 RMK A01 T02510141  RH  053%=      5-min Rain = 0
KGGS 050625Z 33004KT 24/14 A2993 RMK A01 T02440143  RH  056%=      5-min Rain = 0
KGGS 050630Z 34004KT 24/14 A2993 RMK A01 T02380142  RH  057%=      5-min Rain = 0
KGGS 050635Z 36003KT 24/14 A2993 RMK A01 T02360142  RH  058%=      5-min Rain = 0
KGGS 050640Z 36003KT 24/14 A2994 RMK A01 T02360143  RH  058%=      5-min Rain = 0
KGGS 050645Z 34004KT 24/14 A2994 RMK A01 T02350143  RH  059%=      5-min Rain = 0
KGGS 050650Z 35004KT 23/14 A2994 RMK A01 T02320144  RH  061%=      5-min Rain = 0
KGGS 050655Z 36004KT 23/15 A2994 RMK A01 T02330145  RH  060%=      5-min Rain = 0
KGGS 050700Z 35003KT 24/15 A2994 RMK A01 T02350146  RH  060%=      5-min Rain = 0
KGGS 050705Z 33005KT 23/15 A2994 RMK A01 T02300146  RH  062%=      5-min Rain = 0
KGGS 050710Z 32005KT 23/15 A2994 RMK A01 T02290147  RH  062%=      5-min Rain = 0
KGGS 050715Z 31004KT 23/15 A2994 RMK A01 T02280149  RH  064%=      5-min Rain = 0
KGGS 050720Z 32004KT 23/15 A2994 RMK A01 T02300151  RH  064%=      5-min Rain = 0
KGGS 050725Z 32005KT 23/15 A2994 RMK A01 T02300154  RH  065%=      5-min Rain = 0
KGGS 050730Z 33005KT 23/16 A2994 RMK A01 T02270155  RH  066%=      5-min Rain = 0
KGGS 050735Z 33004KT 23/16 A2995 RMK A01 T02260155  RH  067%=      5-min Rain = 0
KGGS 050740Z 33004KT 22/16 A2995 RMK A01 T02230156  RH  069%=      5-min Rain = 0
KGGS 050745Z 32005KT 22/16 A2995 RMK A01 T02210156  RH  070%=      5-min Rain = 0
KGGS 050750Z 31005KT 22/16 A2995 RMK A01 T02210157  RH  070%=      5-min Rain = 0
KGGS 050755Z 32004KT 22/16 A2995 RMK A01 T02220158  RH  070%=      5-min Rain = 0
KGGS 050800Z 32004KT 22/16 A2995 RMK A01 T02220159  RH  070%=      5-min Rain = 0
KGGS 050805Z 32005KT 22/16 A2996 RMK A01 T02220160  RH  071%=      5-min Rain = 0
KGGS 050810Z 32005KT 22/16 A2996 RMK A01 T02230162  RH  071%=      5-min Rain = 0
KGGS 050815Z 32005KT 23/16 A2996 RMK A01 T02260163  RH  071%=      5-min Rain = 0
KGGS 050820Z 33005KT 23/16 A2996 RMK A01 T02300163  RH  069%=      5-min Rain = 0
KGGS 050825Z 33005KT 23/16 A2996 RMK A01 T02310163  RH  069%=      5-min Rain = 0
KGGS 050830Z 34005KT 23/16 A2997 RMK A01 T02340163  RH  068%=      5-min Rain = 0
KGGS 050835Z 34006KT 24/16 A2997 RMK A01 T02360164  RH  067%=      5-min Rain = 0
KGGS 050840Z 33008G14KT 24/16 A2998 RMK A01 T02370164  RH  067%=      5-min Rain = 0
KGGS 050845Z 33016G27KT 24/17 A30 RMK A01 T02400165  RH  066%=      5-min Rain = 0
KGGS 050850Z 34018G28KT 25/17 A30 RMK A01 T02470165  RH  063%=      5-min Rain = 0
KGGS 050855Z 35016G23KT 25/17 A3001 RMK A01 T02500165  RH  062%=      5-min Rain = 0
KGGS 050900Z 35014G19KT 25/17 A3001 RMK A01 T02520165  RH  061%=      5-min Rain = 0
KGGS 050905Z 35012G17KT 26/16 A30 RMK A01 T02570164  RH  059%=      5-min Rain = 0
KGGS 050910Z 35012KT 26/16 A3001 RMK A01 T02590164  RH  058%=      5-min Rain = 0
KGGS 050915Z 00014G21KT 26/16 A3001 RMK A01 T02600163  RH  058%=      5-min Rain = 0
KGGS 050920Z 36014KT 26/16 A30 RMK A01 T02620162  RH  057%=      5-min Rain = 0
KGGS 050925Z 36017G25KT 26/16 A3001 RMK A01 T02610159  RH  056%=      5-min Rain = 0
KGGS 050930Z 35019G25KT 26/15 A3001 RMK A01 T02570152  RH  055%=      5-min Rain = 0
KGGS 050935Z 00020G26KT 25/15 A3001 RMK A01 T02520149  RH  055%=      5-min Rain = 0
KGGS 050940Z 00018G26KT 25/15 A3001 RMK A01 T02490148  RH  056%=      5-min Rain = 0
KGGS 050945Z 36017G22KT 25/15 A3001 RMK A01 T02470147  RH  056%=      5-min Rain = 0
KGGS 050950Z 36017G26KT 25/15 A30 RMK A01 T02450147  RH  057%=      5-min Rain = 0
KGGS 050955Z 00019G26KT 24/15 A30 RMK A01 T02440148  RH  057%=      5-min Rain = 0
KGGS 051000Z 36018G24KT 24/15 A30 RMK A01 T02430148  RH  058%=      5-min Rain = 0
KGGS 051005Z 00016G22KT 24/15 A30 RMK A01 T02420149  RH  058%=      5-min Rain = 0
KGGS 051010Z 00016G22KT 24/15 A30 RMK A01 T02410149  RH  059%=      5-min Rain = 0
KGGS 051015Z 00014G21KT 24/15 A30 RMK A01 T02410149  RH  059%=      5-min Rain = 0
KGGS 051020Z 00012G17KT 24/15 A30 RMK A01 T02390149  RH  060%=      5-min Rain = 0
KGGS 051025Z 01012G17KT 24/15 A30 RMK A01 T02380149  RH  060%=      5-min Rain = 0
KGGS 051030Z 01012G17KT 24/15 A2999 RMK A01 T02380149  RH  060%=      5-min Rain = 0
KGGS 051035Z 01012KT 24/15 A2999 RMK A01 T02370148  RH  060%=      5-min Rain = 0
KGGS 051040Z 02010KT 24/15 A2999 RMK A01 T02360148  RH  060%=      5-min Rain = 0
KGGS 051045Z 01010G16KT 24/15 A2998 RMK A01 T02350148  RH  061%=      5-min Rain = 0
KGGS 051050Z 01009G14KT 23/15 A2998 RMK A01 T02340148  RH  061%=      5-min Rain = 0
KGGS 051055Z 01008G13KT 23/15 A2998 RMK A01 T02330148  RH  061%=      5-min Rain = 0
KGGS 051100Z 01008KT 23/15 A2998 RMK A01 T02330148  RH  061%=      5-min Rain = 0
KGGS 051105Z 02007KT 23/15 A2998 RMK A01 T02320148  RH  062%=      5-min Rain = 0
KGGS 051110Z 01006KT 23/15 A2998 RMK A01 T02310148  RH  062%=      5-min Rain = 0
KGGS 051115Z 00007KT 23/15 A2997 RMK A01 T02300147  RH  062%=      5-min Rain = 0
KGGS 051120Z 00007KT 23/15 A2998 RMK A01 T02290147  RH  063%=      5-min Rain = 0
KGGS 051125Z 00006KT 23/15 A2998 RMK A01 T02290147  RH  063%=      5-min Rain = 0
KGGS 051130Z 02004KT 23/15 A2998 RMK A01 T02300147  RH  062%=      5-min Rain = 0
KGGS 051135Z 03005KT 23/15 A2997 RMK A01 T02300147  RH  062%=      5-min Rain = 0
KGGS 051140Z 03005KT 23/15 A2997 RMK A01 T02300147  RH  062%=      5-min Rain = 0
KGGS 051145Z 04006KT 23/15 A2997 RMK A01 T02300147  RH  062%=      5-min Rain = 0
KGGS 051150Z 05005KT 23/15 A2997 RMK A01 T02310148  RH  062%=      5-min Rain = 0
KGGS 051155Z 06005KT 23/15 A2996 RMK A01 T02320147  RH  062%=      5-min Rain = 0
KGGS 051200Z 05005KT 23/15 A2996 RMK A01 T02330148  RH  061%=      5-min Rain = 0
KGGS 051205Z 04004KT 23/15 A2996 RMK A01 T02310148  RH  062%=      5-min Rain = 0
KGGS 051210Z 03004KT 23/15 A2996 RMK A01 T02300150  RH  063%=      5-min Rain = 0
KGGS 051215Z 05003KT 23/15 A2996 RMK A01 T02280151  RH  065%=      5-min Rain = 0
KGGS 051220Z 09004KT 23/15 A2996 RMK A01 T02270151  RH  065%=      5-min Rain = 0
KGGS 051225Z 11004KT 23/15 A2996 RMK A01 T02290148  RH  063%=      5-min Rain = 0
KGGS 051230Z 14004KT 23/15 A2996 RMK A01 T02290150  RH  064%=      5-min Rain = 0
KGGS 051235Z 17004KT 23/15 A2997 RMK A01 T02290152  RH  065%=      5-min Rain = 0
KGGS 051240Z 18004KT 23/15 A2997 RMK A01 T02270154  RH  066%=      5-min Rain = 0
KGGS 051245Z 16004KT 23/15 A2997 RMK A01 T02300154  RH  065%=      5-min Rain = 0
KGGS 051250Z 16005KT 23/15 A2997 RMK A01 T02300154  RH  065%=      5-min Rain = 0
KGGS 051255Z 17004KT 23/15 A2997 RMK A01 T02300154  RH  065%=      5-min Rain = 0
KGGS 051300Z 19005KT 23/16 A2997 RMK A01 T02330156  RH  065%=      5-min Rain = 0
KGGS 051305Z 18005KT 24/15 A2997 RMK A01 T02380153  RH  062%=      5-min Rain = 0
KGGS 051310Z 17003KT 24/15 A2997 RMK A01 T02430152  RH  059%=      5-min Rain = 0
KGGS 051315Z 18004KT 25/15 A2997 RMK A01 T02490152  RH  057%=      5-min Rain = 0
KGGS 051320Z 16004KT 25/15 A2997 RMK A01 T02520152  RH  056%=      5-min Rain = 0
KGGS 051325Z 14003KT 26/15 A2997 RMK A01 T02560152  RH  055%=      5-min Rain = 0
KGGS 051330Z 11002KT 26/15 A2997 RMK A01 T02580150  RH  054%=      5-min Rain = 0
KGGS 051335Z 09001KT 26/15 A2997 RMK A01 T02630151  RH  052%=      5-min Rain = 0
KGGS 051340Z 08002KT 27/15 A2998 RMK A01 T02650149  RH  051%=      5-min Rain = 0
KGGS 051345Z 09003KT 26/15 A2998 RMK A01 T02640149  RH  052%=      5-min Rain = 0
KGGS 051350Z 07003KT 26/15 A2998 RMK A01 T02640150  RH  052%=      5-min Rain = 0
KGGS 051355Z 04003KT 27/15 A2999 RMK A01 T02660151  RH  052%=      5-min Rain = 0
KGGS 051400Z 07003KT 27/15 A2999 RMK A01 T02670151  RH  051%=      5-min Rain = 0
KGGS 051405Z 05004KT 27/15 A2999 RMK A01 T02710151  RH  050%=      5-min Rain = 0
KGGS 051410Z 07005KT 27/15 A30 RMK A01 T02690150  RH  050%=      5-min Rain = 0
KGGS 051415Z 08005KT 27/15 A30 RMK A01 T02720152  RH  050%=      5-min Rain = 0
KGGS 051420Z 07005KT 27/15 A30 RMK A01 T02740152  RH  049%=      5-min Rain = 0
KGGS 051425Z 08006KT 27/15 A30 RMK A01 T02730152  RH  050%=      5-min Rain = 0
KGGS 051430Z 07006KT 28/15 A30 RMK A01 T02760154  RH  050%=      5-min Rain = 0
KGGS 051435Z 06006KT 28/16 A30 RMK A01 T02780155  RH  049%=      5-min Rain = 0
KGGS 051440Z 08005KT 29/16 A30 RMK A01 T02850157  RH  048%=      5-min Rain = 0
KGGS 051445Z 08008KT 29/16 A30 RMK A01 T02850157  RH  048%=      5-min Rain = 0
KGGS 051450Z 09008KT 29/16 A30 RMK A01 T02850158  RH  048%=      5-min Rain = 0
KGGS 051455Z 09008KT 28/16 A30 RMK A01 T02820158  RH  049%=      5-min Rain = 0
KGGS 051500Z 09008G13KT 28/16 A30 RMK A01 T02830160  RH  050%=      5-min Rain = 0
KGGS 051505Z 09007G12KT 28/16 A30 RMK A01 T02820161  RH  050%=      5-min Rain = 0
KGGS 051510Z 10009KT 28/16 A30 RMK A01 T02820162  RH  051%=      5-min Rain = 0
KGGS 051515Z 09008KT 28/16 A2999 RMK A01 T02810163  RH  051%=      5-min Rain = 0
KGGS 051520Z 08008KT 28/16 A2999 RMK A01 T02830163  RH  051%=      5-min Rain = 0
KGGS 051525Z 08007G12KT 29/16 A2999 RMK A01 T02870164  RH  050%=      5-min Rain = 0
KGGS 051530Z 08007KT 29/16 A2999 RMK A01 T02890164  RH  049%=      5-min Rain = 0
KGGS 051535Z 09008KT 29/16 A2999 RMK A01 T02900164  RH  049%=      5-min Rain = 0
KGGS 051540Z 09009G14KT 29/16 A2999 RMK A01 T02890164  RH  049%=      5-min Rain = 0
KGGS 051545Z 08008KT 29/16 A2999 RMK A01 T02910164  RH  048%=      5-min Rain = 0
KGGS 051550Z 09009KT 29/16 A2999 RMK A01 T02920164  RH  048%=      5-min Rain = 0
KGGS 051555Z 09008KT 29/17 A2999 RMK A01 T02930165  RH  048%=      5-min Rain = 0
KGGS 051600Z 07008G13KT 30/17 A2999 RMK A01 T03000167  RH  047%=      5-min Rain = 0
KGGS 051605Z 06007G12KT 30/17 A2999 RMK A01 T02990166  RH  047%=      5-min Rain = 0
KGGS 051610Z 06008KT 30/17 A2999 RMK A01 T02980166  RH  047%=      5-min Rain = 0
KGGS 051615Z 08009G14KT 30/17 A2999 RMK A01 T02960166  RH  048%=      5-min Rain = 0
KGGS 051620Z 08007G12KT 30/17 A2999 RMK A01 T02970168  RH  048%=      5-min Rain = 0
KGGS 051625Z 07009KT 30/17 A30 RMK A01 T03000169  RH  048%=      5-min Rain = 0
KGGS 051630Z 08009KT 30/17 A30 RMK A01 T02950167  RH  048%=      5-min Rain = 0
KGGS 051635Z 08008G13KT 30/17 A2999 RMK A01 T02990170  RH  048%=      5-min Rain = 0
KGGS 051640Z 07009KT 30/17 A2999 RMK A01 T03010170  RH  048%=      5-min Rain = 0
KGGS 051645Z 08009KT 30/17 A2999 RMK A01 T03030170  RH  047%=      5-min Rain = 0
KGGS 051650Z 07008KT 31/17 A2999 RMK A01 T03060171  RH  047%=      5-min Rain = 0
KGGS 051655Z 09009G15KT 30/17 A2999 RMK A01 T03010169  RH  047%=      5-min Rain = 0
KGGS 051700Z 10009G15KT 30/17 A2999 RMK A01 T03020170  RH  047%=      5-min Rain = 0
KGGS 051705Z 09008G13KT 30/17 A2999 RMK A01 T03020169  RH  047%=      5-min Rain = 0
KGGS 051710Z 08008G14KT 31/17 A2999 RMK A01 T03070169  RH  046%=      5-min Rain = 0
KGGS 051715Z 08010G15KT 30/17 A2999 RMK A01 T03040170  RH  047%=      5-min Rain = 0
KGGS 051720Z 07009G14KT 31/17 A2999 RMK A01 T03100171  RH  046%=      5-min Rain = 0
KGGS 051725Z 05009KT 31/17 A2999 RMK A01 T03100172  RH  046%=      5-min Rain = 0
KGGS 051730Z 10008KT 31/17 A2998 RMK A01 T03060172  RH  047%=      5-min Rain = 0
KGGS 051735Z 06009KT 30/17 A2999 RMK A01 T03040173  RH  048%=      5-min Rain = 0
KGGS 051740Z 06007KT 30/17 A2999 RMK A01 T03030173  RH  048%=      5-min Rain = 0
KGGS 051745Z 09008G14KT 31/18 A2999 RMK A01 T03060175  RH  048%=      5-min Rain = 0
KGGS 051750Z 08010KT 30/17 A2999 RMK A01 T03010174  RH  049%=      5-min Rain = 0
KGGS 051755Z 08009KT 31/18 A2998 RMK A01 T03080177  RH  048%=      5-min Rain = 0
KGGS 051800Z 10007G12KT 31/18 A2998 RMK A01 T03090177  RH  048%=      5-min Rain = 0
KGGS 051805Z 09008G16KT 31/18 A2998 RMK A01 T03070176  RH  048%=      5-min Rain = 0
KGGS 051810Z 09011G18KT 31/18 A2998 RMK A01 T03050176  RH  049%=      5-min Rain = 0
KGGS 051815Z 09009G17KT 30/18 A2998 RMK A01 T02980175  RH  050%=      5-min Rain = 0
KGGS 051820Z 08009KT 30/18 A2998 RMK A01 T02980175  RH  050%=      5-min Rain = 0
KGGS 051825Z 06006KT 30/17 A2998 RMK A01 T02980172  RH  049%=      5-min Rain = 0
KGGS 051830Z 08007G12KT 30/17 A2998 RMK A01 T02990174  RH  049%=      5-min Rain = 0
KGGS 051835Z 08008KT 30/17 A2998 RMK A01 T02990173  RH  049%=      5-min Rain = 0
KGGS 051840Z 08007KT 30/17 A2998 RMK A01 T03000174  RH  049%=      5-min Rain = 0
KGGS 051845Z 09008G14KT 30/17 A2998 RMK A01 T03010174  RH  049%=      5-min Rain = 0
KGGS 051850Z 10008G13KT 30/17 A2998 RMK A01 T03020173  RH  049%=      5-min Rain = 0
KGGS 051855Z 09010KT 31/17 A2997 RMK A01 T03110173  RH  046%=      5-min Rain = 0
KGGS 051900Z 10008KT 31/17 A2997 RMK A01 T03110171  RH  045%=      5-min Rain = 0
KGGS 051905Z 11009G14KT 31/17 A2997 RMK A01 T03140170  RH  044%=      5-min Rain = 0
KGGS 051910Z 11009G15KT 31/17 A2997 RMK A01 T03140169  RH  044%=      5-min Rain = 0
KGGS 051915Z 08010KT 32/17 A2997 RMK A01 T03160169  RH  044%=      5-min Rain = 0
KGGS 051920Z 08009G15KT 32/17 A2997 RMK A01 T03170169  RH  043%=      5-min Rain = 0
KGGS 051925Z 09007G14KT 32/17 A2997 RMK A01 T03190168  RH  042%=      5-min Rain = 0
KGGS 051930Z 11010KT 32/17 A2996 RMK A01 T03160167  RH  043%=      5-min Rain = 0
KGGS 051935Z 08009KT 32/17 A2996 RMK A01 T03160166  RH  042%=      5-min Rain = 0
KGGS 051940Z 10009G15KT 32/17 A2996 RMK A01 T03160166  RH  043%=      5-min Rain = 0
KGGS 051945Z 10008G14KT 32/17 A2996 RMK A01 T03240166  RH  041%=      5-min Rain = 0
KGGS 051950Z 09008G13KT 32/17 A2996 RMK A01 T03230165  RH  041%=      5-min Rain = 0
KGGS 051955Z 11010G16KT 32/17 A2996 RMK A01 T03210165  RH  041%=      5-min Rain = 0
KGGS 052000Z 09006G12KT 32/17 A2995 RMK A01 T03220166  RH  041%=      5-min Rain = 0
KGGS 052005Z 09009G16KT 33/17 A2995 RMK A01 T03280165  RH  040%=      5-min Rain = 0
KGGS 052010Z 10007KT 33/17 A2995 RMK A01 T03270165  RH  040%=      5-min Rain = 0
KGGS 052015Z 11010G15KT 33/16 A2995 RMK A01 T03270163  RH  039%=      5-min Rain = 0
KGGS 052020Z 13005KT 33/16 A2995 RMK A01 T03250161  RH  039%=      5-min Rain = 0
KGGS 052025Z 10005G10KT 33/16 A2994 RMK A01 T03280162  RH  039%=      5-min Rain = 0
KGGS 052030Z 11007G14KT 33/16 A2994 RMK A01 T03330161  RH  037%=      5-min Rain = 0
KGGS 052035Z 12006KT 33/16 A2994 RMK A01 T03260159  RH  038%=      5-min Rain = 0
KGGS 052040Z 12005G11KT 33/16 A2994 RMK A01 T03280158  RH  038%=      5-min Rain = 0
KGGS 052045Z 12008KT 33/16 A2994 RMK A01 T03280158  RH  038%=      5-min Rain = 0
KGGS 052050Z 13004G9KT 33/16 A2994 RMK A01 T03310157  RH  037%=      5-min Rain = 0
KGGS 052055Z 11005KT 33/16 A2994 RMK A01 T03310157  RH  037%=      5-min Rain = 0
KGGS 052100Z 11004KT 33/15 A2994 RMK A01 T03310152  RH  036%=      5-min Rain = 0
KGGS 052105Z 13004KT 33/15 A2993 RMK A01 T03330150  RH  035%=      5-min Rain = 0
KGGS 052110Z 04003KT 33/15 A2993 RMK A01 T03330150  RH  035%=      5-min Rain = 0
KGGS 052115Z 06007KT 34/15 A2993 RMK A01 T03360151  RH  034%=      5-min Rain = 0
KGGS 052120Z 35001KT 33/15 A2993 RMK A01 T03330150  RH  035%=      5-min Rain = 0
KGGS 052125Z 14003G8KT 34/15 A2992 RMK A01 T03390152  RH  034%=      5-min Rain = 0
KGGS 052130Z 12007KT 34/15 A2992 RMK A01 T03370152  RH  035%=      5-min Rain = 0
KGGS 052135Z 12005KT 34/15 A2992 RMK A01 T03350151  RH  035%=      5-min Rain = 0
KGGS 052140Z 14004KT 34/15 A2992 RMK A01 T03350149  RH  034%=      5-min Rain = 0
KGGS 052145Z 13002G7KT 34/15 A2992 RMK A01 T03380149  RH  034%=      5-min Rain = 0
KGGS 052150Z 10006KT 34/15 A2991 RMK A01 T03390149  RH  033%=      5-min Rain = 0
KGGS 052155Z 10007KT 34/15 A2991 RMK A01 T03370148  RH  034%=      5-min Rain = 0
KGGS 052200Z 09003KT 34/15 A2991 RMK A01 T03350148  RH  034%=      5-min Rain = 0
KGGS 052205Z 10005KT 34/15 A299 RMK A01 T03390149  RH  033%=      5-min Rain = 0
KGGS 052210Z 08005KT 34/15 A299 RMK A01 T03410148  RH  033%=      5-min Rain = 0
KGGS 052215Z 10004KT 34/15 A299 RMK A01 T03400146  RH  033%=      5-min Rain = 0
KGGS 052220Z 07003KT 34/15 A299 RMK A01 T03380145  RH  033%=      5-min Rain = 0
KGGS 052225Z 11005KT 34/15 A299 RMK A01 T03400148  RH  033%=      5-min Rain = 0
KGGS 052230Z 09006KT 34/15 A2989 RMK A01 T03430148  RH  032%=      5-min Rain = 0
KGGS 052235Z 11004G9KT 34/15 A2989 RMK A01 T03410146  RH  033%=      5-min Rain = 0
KGGS 052240Z 09005KT 34/14 A2989 RMK A01 T03390144  RH  032%=      5-min Rain = 0
KGGS 052245Z 04003KT 34/14 A2989 RMK A01 T03400143  RH  032%=      5-min Rain = 0
KGGS 052250Z 09006KT 34/14 A2988 RMK A01 T03410144  RH  032%=      5-min Rain = 0
KGGS 052255Z 10005G10KT 34/14 A2988 RMK A01 T03410142  RH  032%=      5-min Rain = 0
KGGS 052300Z 12005KT 34/14 A2988 RMK A01 T03440143  RH  031%=      5-min Rain = 0
KGGS 052305Z 10005KT 34/14 A2988 RMK A01 T03420140  RH  031%=      5-min Rain = 0
KGGS 052310Z 10003KT 34/14 A2987 RMK A01 T03420138  RH  031%=      5-min Rain = 0
KGGS 052315Z 05003G8KT 34/14 A2987 RMK A01 T03420143  RH  031%=      5-min Rain = 0
KGGS 052320Z 13005KT 34/14 A2987 RMK A01 T03430143  RH  031%=      5-min Rain = 0
KGGS 052325Z 12007G12KT 34/14 A2987 RMK A01 T03410143  RH  032%=      5-min Rain = 0
KGGS 052330Z 10007G12KT 34/14 A2987 RMK A01 T03400142  RH  032%=      5-min Rain = 0
KGGS 052335Z 14006G11KT 34/14 A2987 RMK A01 T03390142  RH  032%=      5-min Rain = 0
KGGS 052340Z 12004KT 34/14 A2987 RMK A01 T03410142  RH  031%=      5-min Rain = 0
KGGS 052345Z 08003KT 34/14 A2987 RMK A01 T03400141  RH  031%=      5-min Rain = 0
KGGS 052350Z 05002G7KT 34/14 A2987 RMK A01 T03410140  RH  031%=      5-min Rain = 0
KGGS 052355Z 07006KT 34/14 A2986 RMK A01 T03430142  RH  031%=      5-min Rain = 0
KGGS 060000Z 09003KT 34/14 A2986 RMK A01 T03420143  RH  032%=      5-min Rain = 0
KGGS 060005Z 10004KT 34/14 A2986 RMK A01 T03420143  RH  032%=      5-min Rain = 0
KGGS 060010Z 11004KT 34/14 A2986 RMK A01 T03400142  RH  032%=      5-min Rain = 0
KGGS 060015Z 11004KT 34/14 A2986 RMK A01 T03390142  RH  032%=      5-min Rain = 0
KGGS 060020Z 10003KT 34/14 A2986 RMK A01 T03400141  RH  032%=      5-min Rain = 0
KGGS 060025Z 07005KT 34/14 A2986 RMK A01 T03400142  RH  032%=      5-min Rain = 0
KGGS 060030Z 09004KT 34/14 A2985 RMK A01 T03390142  RH  032%=      5-min Rain = 0
KGGS 060035Z 10005KT 34/15 A2985 RMK A01 T03390146  RH  033%=      5-min Rain = 0
KGGS 060040Z 10004KT 34/15 A2985 RMK A01 T03380148  RH  033%=      5-min Rain = 0
KGGS 060045Z 08006KT 34/15 A2985 RMK A01 T03360145  RH  033%=      5-min Rain = 0
KGGS 060050Z 08004KT 34/15 A2985 RMK A01 T03360146  RH  033%=      5-min Rain = 0
KGGS 060055Z 09005KT 34/15 A2985 RMK A01 T03350147  RH  034%=      5-min Rain = 0
KGGS 060100Z 09006KT 33/15 A2985 RMK A01 T03330147  RH  034%=      5-min Rain = 0
KGGS 060105Z 08006KT 33/15 A2986 RMK A01 T03310147  RH  034%=      5-min Rain = 0
KGGS 060110Z 07006KT 33/15 A2986 RMK A01 T03310148  RH  035%=      5-min Rain = 0
KGGS 060115Z 07005KT 33/15 A2986 RMK A01 T03300148  RH  035%=      5-min Rain = 0
KGGS 060120Z 06006KT 33/15 A2986 RMK A01 T03300147  RH  035%=      5-min Rain = 0
KGGS 060125Z 06006KT 33/15 A2987 RMK A01 T03280146  RH  035%=      5-min Rain = 0
KGGS 060130Z 06005KT 33/15 A2987 RMK A01 T03250145  RH  035%=      5-min Rain = 0
KGGS 060135Z 06005KT 32/15 A2987 RMK A01 T03230145  RH  036%=      5-min Rain = 0
KGGS 060140Z 06005KT 32/14 A2987 RMK A01 T03210144  RH  036%=      5-min Rain = 0
KGGS 060145Z 06005KT 32/15 A2987 RMK A01 T03190145  RH  036%=      5-min Rain = 0
KGGS 060150Z 06005KT 32/15 A2988 RMK A01 T03180145  RH  037%=      5-min Rain = 0
KGGS 060155Z 06005KT 32/15 A2988 RMK A01 T03160145  RH  037%=      5-min Rain = 0
KGGS 060200Z 07005KT 32/15 A2988 RMK A01 T03150145  RH  037%=      5-min Rain = 0
KGGS 060205Z 07005KT 31/15 A2988 RMK A01 T03130145  RH  038%=      5-min Rain = 0
KGGS 060210Z 07005KT 31/15 A2988 RMK A01 T03110146  RH  038%=      5-min Rain = 0
KGGS 060215Z 08005KT 31/15 A2988 RMK A01 T03090148  RH  039%=      5-min Rain = 0
KGGS 060220Z 08006KT 31/15 A2988 RMK A01 T03090150  RH  040%=      5-min Rain = 0
KGGS 060225Z 08007G13KT 31/15 A2988 RMK A01 T03080154  RH  041%=      5-min Rain = 0
KGGS 060230Z 08009G14KT 31/16 A2989 RMK A01 T03080159  RH  043%=      5-min Rain = 0
KGGS 060235Z 08008KT 31/16 A2989 RMK A01 T03070161  RH  044%=      5-min Rain = 0
KGGS 060240Z 08008KT 31/16 A2989 RMK A01 T03060162  RH  044%=      5-min Rain = 0
KGGS 060245Z 08010G16KT 31/16 A2989 RMK A01 T03050161  RH  044%=      5-min Rain = 0
KGGS 060250Z 08009G14KT 30/16 A2989 RMK A01 T03040161  RH  044%=      5-min Rain = 0
KGGS 060255Z 08009G14KT 30/16 A2989 RMK A01 T03030159  RH  044%=      5-min Rain = 0
KGGS 060300Z 09008KT 30/16 A299 RMK A01 T03010159  RH  044%=      5-min Rain = 0
KGGS 060305Z 09007KT 30/16 A299 RMK A01 T03000158  RH  044%=      5-min Rain = 0
KGGS 060310Z 08007G12KT 30/16 A2991 RMK A01 T02990158  RH  044%=      5-min Rain = 0
KGGS 060315Z 08009KT 30/16 A2991 RMK A01 T02980157  RH  044%=      5-min Rain = 0
KGGS 060320Z 08008KT 30/16 A2991 RMK A01 T02980156  RH  044%=      5-min Rain = 0
KGGS 060325Z 09008G13KT 30/16 A2991 RMK A01 T02970155  RH  044%=      5-min Rain = 0
KGGS 060330Z 10007KT 30/16 A299 RMK A01 T02960155  RH  044%=      5-min Rain = 0
KGGS 060335Z 10008G13KT 30/15 A299 RMK A01 T02960153  RH  044%=      5-min Rain = 0
KGGS 060340Z 10009KT 30/15 A299 RMK A01 T02960152  RH  043%=      5-min Rain = 0
KGGS 060345Z 10009G14KT 30/15 A299 RMK A01 T02960151  RH  043%=      5-min Rain = 0
KGGS 060350Z 11007KT 30/15 A299 RMK A01 T02970150  RH  043%=      5-min Rain = 0
KGGS 060355Z 25017G32KT 29/15 A2995 RMK A01 T02890152  RH  046%=      5-min Rain = 0
KGGS 060400Z 28023G33KT 25/16 A2997 RMK A01 T02510157  RH  059%=      5-min Rain = 0
KGGS 060405Z 28024G38KT 24/16 A2998 RMK A01 T02370161  RH  065%=      5-min Rain = 0
KGGS 060410Z 29025G34KT 23/16 A2998 RMK A01 T02290164  RH  070%=      5-min Rain = 0
KGGS 060415Z 28026G35KT 22/17 A2999 RMK A01 T02150171  RH  080%=      5-min Rain = 0.01
KGGS 060420Z 28022G28KT 21/18 A2998 RMK A01 T02060176  RH  087%=      5-min Rain = 0.01
KGGS 060425Z 27019G27KT 21/18 A2998 RMK A01 T02060177  RH  088%=      5-min Rain = 0.01
KGGS 060430Z 26017G23KT 21/18 A2998 RMK A01 T02070177  RH  088%=      5-min Rain = 0
KGGS 060435Z 24016G24KT 21/18 A2999 RMK A01 T02070179  RH  089%=      5-min Rain = 0
KGGS 060440Z 24017G23KT 20/18 A2999 RMK A01 T02040180  RH  090%=      5-min Rain = 0.01
KGGS 060445Z 25016G23KT 20/18 A2999 RMK A01 T02040180  RH  091%=      5-min Rain = 0.02
KGGS 060450Z 25017G23KT 20/18 A2999 RMK A01 T02030179  RH  091%=      5-min Rain = 0
KGGS 060455Z 24011G16KT 20/18 A2999 RMK A01 T02040180  RH  091%=      5-min Rain = 0

Page generated in 0.0321 seconds.